Thursday, May 28, 2015, 1:58 PM EDT

KPTW, Pottstown Limerick Airport

Location: Royersford, PA, United States Lat: 40.233
Local Time: 1:58 PM EDT (17:58 GMT) Lon: -75.55
Time Zone: US/Eastern Elev: 291 ft

Show me the last for .
Show Decoded

2015-05-28 12:54 METAR KPTW 281654Z AUTO VRB05KT 10SM SCT045 28/19 A3018 RMK AO2 SLP215 T02780189
                 =
2015-05-28 11:54 METAR KPTW 281554Z AUTO 34005KT 10SM SCT031 28/21 A3018 RMK AO2 SLP215 T02780206
                 =
2015-05-28 10:54 METAR KPTW 281454Z AUTO VRB04KT 10SM BKN020 26/21 A3019 RMK AO2 SLP217 T02610211
                 50002 =
2015-05-28 09:54 METAR KPTW 281354Z AUTO 32004KT 8SM BKN016 25/21 A3019 RMK AO2 SLP218 T02500211
                 =
2015-05-28 09:39 METAR KPTW 281339Z AUTO 24006KT 8SM BKN015 BKN019 24/22 A3019 RMK AO2 T02440217
                 =
2015-05-28 09:01 METAR KPTW 281301Z AUTO 24005KT 8SM BKN013 23/22 A3019 RMK AO2 T02330217 =
2015-05-28 08:54 METAR KPTW 281254Z AUTO 24005KT 8SM SCT013 24/22 A3019 RMK AO2 SLP218 T02390217
                 =
2015-05-28 08:04 METAR KPTW 281204Z AUTO 23005KT 7SM SCT008 BKN065 23/22 A3019 RMK AO2 T02280217
                 =
2015-05-28 07:54 METAR KPTW 281154Z AUTO 21003KT 7SM BKN065 22/21 A3018 RMK AO2 SLP215 70029
                 T02220211 10222 20178 51012 =
2015-05-28 07:20 METAR KPTW 281120Z AUTO 21003KT 7SM FEW009 FEW016 22/21 A3017 RMK AO2 T02170211
                 =
2015-05-28 07:11 METAR KPTW 281111Z AUTO 20003KT 7SM FEW009 BKN015 22/21 A3017 RMK AO2 T02170211
                 =
2015-05-28 07:02 METAR KPTW 281102Z AUTO 00000KT 7SM BKN015 BKN060 OVC075 22/21 A3017 RMK AO2
                 T02170211 =
2015-05-28 06:54 METAR KPTW 281054Z AUTO 23004KT 7SM OVC013 21/21 A3018 RMK AO2 SLP214 T02110211
                 =
2015-05-28 06:28 METAR KPTW 281028Z AUTO 25003KT 5SM BR OVC011 21/21 A3017 RMK AO2 T02110211 =
2015-05-28 05:54 METAR KPTW 280954Z AUTO 00000KT 5SM BR OVC006 21/21 A3016 RMK AO2 CIG 005V010
                 SLP210 T02060206 =
2015-05-28 04:54 METAR KPTW 280854Z AUTO 00000KT 8SM OVC006 21/21 A3015 RMK AO2 SLP204 T02060206
                 55000 =
2015-05-28 03:54 METAR KPTW 280754Z AUTO 00000KT 10SM OVC008 21/21 A3014 RMK AO2 SLP200 T02060206
                 =
2015-05-28 03:44 METAR KPTW 280744Z AUTO 00000KT 10SM OVC009 20/20 A3013 RMK AO2 T02000200 =
2015-05-28 02:54 METAR KPTW 280654Z AUTO 00000KT 6SM BR BKN013 18/18 A3014 RMK AO2 SLP202
                 T01830183 =
2015-05-28 00:54 METAR KPTW 280454Z AUTO 00000KT 9SM CLR 19/19 A3015 RMK AO2 SLP204 T01890189
                 403000183 =
2015-05-27 23:54 METAR KPTW 280354Z AUTO 00000KT 8SM CLR 19/19 A3016 RMK AO2 SLP209 T01940194 =
2015-05-27 23:10 METAR KPTW 280310Z AUTO 00000KT 4SM BR CLR 19/19 A3017 RMK AO2 T01940194 =
2015-05-27 23:01 METAR KPTW 280301Z AUTO 00000KT 1 3/4SM BR CLR 19/19 A3017 RMK AO2 VIS 3/4V5
                 T01940194 =
2015-05-27 22:54 METAR KPTW 280254Z AUTO 00000KT 7SM CLR 20/20 A3017 RMK AO2 SLP210 T02000200
                 50013 =
2015-05-27 21:54 METAR KPTW 280154Z AUTO 00000KT 10SM BKN070 BKN090 21/21 A3017 RMK AO2 SLP211
                 T02110211 =
2015-05-27 20:54 METAR KPTW 280054Z AUTO 00000KT 9SM CLR 21/21 A3015 RMK AO2 SLP204 T02060206 =
2015-05-27 19:54 METAR KPTW 272354Z AUTO 00000KT 10SM CLR 22/22 A3013 RMK AO2 SLP197 60029
                 T02170217 10300 20211 56006 =
2015-05-27 18:54 METAR KPTW 272254Z AUTO 22003KT 10SM FEW055 SCT095 BKN110 22/21 A3013 RMK AO2
                 RAB2158E37 SLP199 P0000 T02170211 =
2015-05-27 17:54 METAR KPTW 272154Z AUTO 22004KT 10SM FEW060 OVC080 21/21 A3014 RMK AO2 LTG DSNT
                 E-S RAE49 SLP201 P0006 T02110211 =
2015-05-27 17:30 METAR KPTW 272130Z AUTO 23004KT 10SM VCTS -RA BKN060 BKN085 OVC100 21/21 A3014
                 RMK AO2 LTG DSNT S P0005 T02110206 =
2015-05-27 17:16 METAR KPTW 272116Z AUTO VRB04KT 2 1/2SM VCTS RA BR FEW033 BKN065 OVC100 22/21
                 A3014 RMK AO2 LTG DSNT S AND SW P0005 T02170211 =
2015-05-27 17:05 METAR KPTW 272105Z AUTO 24005KT 9SM -RA SCT029 BKN080 OVC110 22/21 A3015 RMK AO2
                 LTG DSNT N AND S AND SW P0001 T02170211 =
2015-05-27 16:58 METAR KPTW 272058Z AUTO 25005KT 2SM -RA BR FEW026 BKN037 OVC075 22/21 A3014 RMK
                 AO2 LTG DSNT N AND S AND SW P0000 T02170211 =
2015-05-27 16:54 METAR KPTW 272054Z AUTO 24006KT 3/4SM VCTS +RA BR SCT024 BKN037 OVC090 21/21
                 A3015 RMK AO2 LTG DSNT N AND SW RAB44 SLP205 P0023 60023 T02110206 53003 =
2015-05-27 16:49 METAR KPTW 272049Z AUTO 29009G16KT 3/4SM VCTS +RA BR SCT024 BKN037 OVC090 22/20
                 A3014 RMK AO2 LTG DSNT N AND SW RAB44 P0021 =
2015-05-27 16:45 METAR KPTW 272045Z AUTO 28008G20KT 2 1/2SM VCTS RA BKN037 BKN050 BKN090 23/19
                 A3014 RMK AO2 LTG DSNT N AND SW RAB44 P0006 T02330189 =
2015-05-27 15:54 METAR KPTW 271954Z AUTO 20011G20KT 10SM FEW043 SCT095 29/18 A3011 RMK AO2 LTG
                 DSNT S-NW SLP190 T02890183 =

Support USWX by starting your Amazon purchase here.